Terminal Aerodrome Forecast
Issued by NWS

Current Version | Previous Version | Text Only | Print | Product List | Glossary Off
Versions: 1 2 3 4 5 6 7 8 9 10 11 12 13 14 15 16 17 18 19 20 21 22 23 24 25 26 27 28 29 30 31 32 33 34

000
FTUS41 KRNK 241734
TAFLWB
TAF
KLWB 241734Z 2418/2518 00000KT P6SM -SN OVC025
      TEMPO 2418/2420 4SM -SN
     FM242100 VRB03KT P6SM BKN030
     FM250300 25007KT P6SM SCT030
     FM250800 28007KT P6SM -SHSN OVC020
     FM251400 28005KT P6SM BKN025=

USA.gov is the U.S. government's official web portal to all federal, state and local government web resources and services.